createdAt,value
2022-12-31T00:00:05.927Z,1.97
2022-12-31T00:02:33.053Z,1.97
2022-12-31T00:04:59.977Z,1.94
2022-12-31T00:07:27.711Z,1.94
2022-12-31T00:09:54.936Z,2.01
2022-12-31T00:12:21.971Z,2.01
2022-12-31T00:14:48.959Z,2.03
2022-12-31T00:17:16.934Z,2.00
2022-12-31T00:19:43.945Z,1.98
2022-12-31T00:22:10.826Z,1.92
2022-12-31T00:24:37.695Z,1.92
2022-12-31T00:27:04.545Z,2.02
2022-12-31T00:30:02.451Z,2.06
2022-12-31T00:32:32.883Z,2.09
2022-12-31T00:34:59.675Z,2.11
2022-12-31T00:37:29.978Z,2.12
2022-12-31T00:39:57.468Z,2.14
2022-12-31T00:42:24.559Z,2.13
2022-12-31T00:44:51.418Z,2.14
2022-12-31T00:47:18.259Z,2.15
2022-12-31T00:49:45.358Z,2.14
2022-12-31T00:52:12.187Z,2.11
2022-12-31T00:54:39.867Z,2.13
2022-12-31T00:57:06.618Z,2.13
2022-12-31T00:59:34.454Z,2.15
2022-12-31T01:02:01.410Z,2.14
2022-12-31T01:04:34.957Z,2.14
2022-12-31T01:07:01.800Z,2.12
2022-12-31T01:09:28.879Z,2.12
2022-12-31T01:11:57.492Z,2.12
2022-12-31T01:14:24.406Z,2.09
2022-12-31T01:16:57.078Z,2.13
2022-12-31T01:19:29.569Z,2.11
2022-12-31T01:21:59.028Z,2.09
2022-12-31T01:24:26.975Z,2.12
2022-12-31T01:26:53.879Z,2.11
2022-12-31T01:32:12.410Z,2.06
2022-12-31T01:34:39.394Z,2.04
2022-12-31T01:37:06.253Z,2.05
2022-12-31T01:39:33.161Z,2.04
2022-12-31T01:41:59.860Z,2.02
2022-12-31T01:44:27.994Z,1.96
2022-12-31T01:46:58.832Z,2.02
2022-12-31T01:49:31.003Z,2.06
2022-12-31T01:52:05.712Z,2.03
2022-12-31T01:54:43.005Z,1.99
2022-12-31T01:57:12.887Z,2.06
2022-12-31T01:59:41.164Z,2.07
2022-12-31T02:02:09.994Z,2.02
2022-12-31T02:04:38.522Z,2.00
2022-12-31T02:07:07.847Z,1.96
2022-12-31T02:09:40.058Z,1.99
2022-12-31T02:12:09.357Z,2.03
2022-12-31T02:14:50.952Z,2.03
2022-12-31T02:17:31.263Z,2.01
2022-12-31T02:20:22.614Z,2.05
2022-12-31T02:23:36.571Z,2.05
2022-12-31T02:26:35.626Z,2.07
2022-12-31T02:29:16.778Z,2.05
2022-12-31T02:32:12.649Z,2.03
2022-12-31T02:35:09.389Z,2.07
2022-12-31T02:37:39.935Z,2.05
2022-12-31T02:40:12.076Z,2.06
2022-12-31T02:42:43.090Z,2.07
2022-12-31T02:45:15.228Z,2.10
2022-12-31T02:48:19.939Z,2.03
2022-12-31T02:51:30.067Z,2.08
2022-12-31T02:53:58.969Z,2.04
2022-12-31T02:56:58.320Z,2.09
2022-12-31T02:59:28.269Z,2.11
2022-12-31T03:02:11.863Z,2.15
2022-12-31T03:04:41.567Z,2.11
2022-12-31T03:07:11.667Z,2.16
2022-12-31T03:09:39.074Z,2.12
2022-12-31T03:12:08.990Z,2.16
2022-12-31T03:14:36.912Z,2.20
2022-12-31T03:17:05.594Z,2.20
2022-12-31T03:19:32.919Z,2.23
2022-12-31T03:21:59.651Z,2.21
2022-12-31T03:24:26.939Z,2.24
2022-12-31T03:26:53.673Z,2.24
2022-12-31T03:29:22.034Z,2.26
2022-12-31T03:31:49.535Z,2.25
2022-12-31T03:34:16.271Z,2.27
2022-12-31T03:36:43.521Z,2.28
2022-12-31T03:39:10.403Z,2.30
2022-12-31T03:41:37.132Z,2.31
2022-12-31T03:44:05.994Z,2.33
2022-12-31T03:46:32.688Z,2.33
2022-12-31T03:48:59.525Z,2.35
2022-12-31T03:51:26.623Z,2.30
2022-12-31T03:53:53.499Z,2.28
2022-12-31T03:56:20.357Z,2.32
2022-12-31T03:58:48.020Z,2.34
2022-12-31T04:01:15.544Z,2.34
2022-12-31T04:03:44.038Z,2.34
2022-12-31T04:06:11.483Z,2.35
2022-12-31T04:08:42.017Z,2.33
2022-12-31T04:11:09.635Z,2.29
2022-12-31T04:13:37.945Z,2.30
2022-12-31T04:16:05.789Z,2.28
2022-12-31T04:18:32.980Z,2.31
2022-12-31T04:21:04.144Z,2.31
2022-12-31T04:23:32.060Z,2.32
2022-12-31T04:25:58.941Z,2.28
2022-12-31T04:28:26.467Z,2.29
2022-12-31T04:30:53.319Z,2.31
2022-12-31T04:33:20.236Z,2.26
2022-12-31T04:35:47.123Z,2.28
2022-12-31T04:38:14.208Z,2.26
2022-12-31T04:40:40.987Z,2.25
2022-12-31T04:43:09.310Z,2.24
2022-12-31T04:45:36.261Z,2.26
2022-12-31T04:48:03.633Z,2.28
2022-12-31T04:50:36.027Z,2.23
2022-12-31T04:53:02.881Z,2.26
2022-12-31T04:55:29.612Z,2.24
2022-12-31T04:57:58.245Z,2.24
2022-12-31T05:00:25.023Z,2.27
2022-12-31T05:02:55.476Z,2.18
2022-12-31T05:05:22.526Z,2.15
2022-12-31T05:07:49.261Z,2.20
2022-12-31T05:10:19.571Z,2.18
2022-12-31T05:13:12.106Z,2.22
2022-12-31T05:15:42.105Z,2.15
2022-12-31T05:18:08.980Z,2.19
2022-12-31T05:21:01.922Z,2.15
2022-12-31T05:23:29.821Z,2.22
2022-12-31T05:25:56.756Z,2.20
2022-12-31T05:28:28.068Z,2.21
2022-12-31T05:30:58.558Z,2.21
2022-12-31T05:33:25.306Z,2.22
2022-12-31T05:35:52.943Z,2.20
2022-12-31T05:38:19.643Z,2.22
2022-12-31T05:40:47.536Z,2.22
2022-12-31T05:43:15.054Z,2.22
2022-12-31T05:45:42.437Z,2.22
2022-12-31T05:48:15.936Z,2.25
2022-12-31T05:50:43.453Z,2.24
2022-12-31T05:53:10.348Z,2.29
2022-12-31T05:55:37.471Z,2.22
2022-12-31T05:58:06.983Z,2.20
2022-12-31T06:00:34.425Z,2.23
2022-12-31T06:03:01.388Z,2.24
2022-12-31T06:05:28.439Z,2.25
2022-12-31T06:07:59.067Z,2.35
2022-12-31T06:10:27.489Z,2.32
2022-12-31T06:12:54.319Z,2.32
2022-12-31T06:15:21.428Z,2.31
2022-12-31T06:17:49.137Z,2.32
2022-12-31T06:20:15.882Z,2.34
2022-12-31T06:22:43.473Z,2.36
2022-12-31T06:25:11.159Z,2.33
2022-12-31T06:27:38.060Z,2.35
2022-12-31T06:30:05.383Z,2.35
2022-12-31T06:32:32.472Z,2.35
2022-12-31T06:35:23.994Z,2.36
2022-12-31T06:40:46.033Z,2.40
2022-12-31T06:43:13.414Z,2.40
2022-12-31T06:45:40.645Z,2.43
2022-12-31T06:48:07.752Z,2.45
2022-12-31T06:50:34.943Z,2.46
2022-12-31T06:53:01.772Z,2.45
2022-12-31T06:55:28.966Z,2.49
2022-12-31T06:57:56.276Z,2.47
2022-12-31T07:00:23.741Z,2.48
2022-12-31T07:06:23.937Z,2.52
2022-12-31T07:08:59.665Z,2.51
2022-12-31T07:11:36.987Z,2.52
2022-12-31T07:14:13.393Z,2.49
2022-12-31T07:17:05.680Z,2.53
2022-12-31T07:19:57.818Z,2.51
2022-12-31T07:22:26.050Z,2.55
2022-12-31T07:24:53.126Z,2.57
2022-12-31T07:27:28.968Z,2.60
2022-12-31T07:29:58.435Z,2.56
2022-12-31T07:32:25.517Z,2.60
2022-12-31T07:35:12.788Z,2.58
2022-12-31T07:37:57.603Z,2.57
2022-12-31T07:40:36.000Z,2.62
2022-12-31T07:43:26.600Z,2.63
2022-12-31T07:46:12.984Z,2.64
2022-12-31T07:49:10.091Z,2.64
2022-12-31T07:51:39.943Z,2.67
2022-12-31T07:54:11.948Z,2.68
2022-12-31T07:56:46.987Z,2.71
2022-12-31T07:59:47.867Z,2.74
2022-12-31T08:06:12.063Z,2.77
2022-12-31T08:08:58.801Z,2.81
2022-12-31T08:11:55.043Z,2.84
2022-12-31T08:14:24.223Z,2.87
2022-12-31T08:16:51.346Z,2.91
2022-12-31T08:19:26.144Z,2.92
2022-12-31T08:22:26.474Z,2.96
2022-12-31T08:25:08.046Z,2.99
2022-12-31T08:28:09.108Z,3.04
2022-12-31T08:31:04.917Z,3.04
2022-12-31T08:33:43.745Z,3.07
2022-12-31T08:36:45.008Z,3.06
2022-12-31T08:39:55.947Z,3.05
2022-12-31T08:43:15.963Z,3.02
2022-12-31T08:45:49.721Z,3.03
2022-12-31T08:48:33.031Z,3.08
2022-12-31T08:51:03.648Z,3.16
2022-12-31T08:53:33.721Z,3.17
2022-12-31T08:56:34.799Z,3.20
2022-12-31T08:59:17.976Z,3.23
2022-12-31T09:01:54.615Z,3.25
2022-12-31T09:04:46.391Z,3.28
2022-12-31T09:07:22.034Z,3.31
2022-12-31T09:10:32.544Z,3.38
2022-12-31T09:13:35.943Z,3.39
2022-12-31T09:16:16.373Z,3.41
2022-12-31T09:18:43.892Z,3.45
2022-12-31T09:21:16.013Z,3.47
2022-12-31T09:23:43.663Z,3.48
2022-12-31T09:26:52.036Z,3.52
2022-12-31T09:29:55.123Z,3.51
2022-12-31T09:33:01.370Z,3.56
2022-12-31T09:35:52.603Z,3.55
2022-12-31T09:38:28.958Z,3.57
2022-12-31T09:41:12.964Z,3.58
2022-12-31T09:44:18.927Z,3.59
2022-12-31T09:47:18.726Z,3.60
2022-12-31T09:53:28.044Z,3.61
2022-12-31T09:56:13.020Z,3.64
2022-12-31T09:58:58.391Z,3.66
2022-12-31T10:01:53.443Z,3.69
2022-12-31T10:08:07.441Z,3.74
2022-12-31T10:10:55.999Z,3.80
2022-12-31T10:13:27.174Z,3.85
2022-12-31T10:16:02.471Z,3.85
2022-12-31T10:18:53.803Z,3.86
2022-12-31T10:21:37.043Z,3.87
2022-12-31T10:24:13.333Z,3.87
2022-12-31T10:26:53.535Z,3.89
2022-12-31T10:29:25.637Z,3.91
2022-12-31T10:32:31.178Z,3.95
2022-12-31T10:35:28.386Z,3.95
2022-12-31T10:38:16.082Z,3.98
2022-12-31T10:41:13.388Z,4.00
2022-12-31T10:44:01.944Z,4.01
2022-12-31T10:47:08.325Z,4.00
2022-12-31T10:53:14.895Z,4.07
2022-12-31T10:55:54.274Z,4.08
2022-12-31T10:58:36.674Z,4.12
2022-12-31T11:01:17.167Z,4.17
2022-12-31T11:04:30.133Z,4.20
2022-12-31T11:07:45.504Z,4.23
2022-12-31T11:10:18.961Z,4.29
2022-12-31T11:13:24.050Z,4.31
2022-12-31T11:16:19.301Z,4.35
2022-12-31T11:19:21.523Z,4.38
2022-12-31T11:22:10.986Z,4.41
2022-12-31T11:24:56.344Z,4.44
2022-12-31T11:31:14.981Z,4.56
2022-12-31T11:34:15.255Z,4.61
2022-12-31T11:37:10.874Z,4.65
2022-12-31T11:39:46.605Z,4.68
2022-12-31T11:42:40.874Z,4.72
2022-12-31T11:45:11.203Z,4.79
2022-12-31T11:51:01.979Z,5.01
2022-12-31T11:53:50.047Z,5.05
2022-12-31T11:56:19.697Z,5.08
2022-12-31T11:58:50.916Z,5.09
2022-12-31T12:01:24.725Z,5.11
2022-12-31T12:03:54.001Z,5.14
2022-12-31T12:06:27.385Z,5.15
2022-12-31T12:09:00.950Z,5.19
2022-12-31T12:11:32.945Z,5.20
2022-12-31T12:14:02.979Z,5.23
2022-12-31T12:16:29.953Z,5.24
2022-12-31T12:19:06.970Z,5.28
2022-12-31T12:21:34.594Z,5.28
2022-12-31T12:24:30.891Z,5.29
2022-12-31T12:26:58.158Z,5.29
2022-12-31T12:29:32.972Z,5.32
2022-12-31T12:32:02.202Z,5.35
2022-12-31T12:34:37.955Z,5.42
2022-12-31T12:37:25.792Z,5.46
2022-12-31T12:39:58.995Z,5.48
2022-12-31T12:42:26.823Z,5.52
2022-12-31T12:45:05.266Z,5.53
2022-12-31T12:47:33.544Z,5.58
2022-12-31T12:50:01.114Z,5.61
2022-12-31T12:52:41.845Z,5.61
2022-12-31T12:55:20.815Z,5.66
2022-12-31T12:58:00.175Z,5.70
2022-12-31T13:00:46.013Z,5.71
2022-12-31T13:03:16.277Z,5.74
2022-12-31T13:06:02.921Z,5.76
2022-12-31T13:09:00.436Z,5.81
2022-12-31T13:11:41.092Z,5.83
2022-12-31T13:14:25.955Z,5.86
2022-12-31T13:17:31.912Z,5.88
2022-12-31T13:20:08.934Z,5.89
2022-12-31T13:23:08.892Z,5.92
2022-12-31T13:26:00.579Z,5.92
2022-12-31T13:28:28.973Z,5.92
2022-12-31T13:31:06.542Z,5.93
2022-12-31T13:33:42.910Z,5.94
2022-12-31T13:36:21.234Z,5.95
2022-12-31T13:42:28.950Z,5.99
2022-12-31T13:45:04.166Z,5.98
2022-12-31T13:47:44.872Z,5.99
2022-12-31T13:50:19.595Z,5.99
2022-12-31T13:52:51.926Z,5.99
2022-12-31T13:55:19.455Z,6.03
2022-12-31T13:57:52.792Z,6.05
2022-12-31T14:00:19.566Z,6.04
2022-12-31T14:02:53.111Z,6.06
2022-12-31T14:05:31.445Z,6.06
2022-12-31T14:10:53.447Z,6.05
2022-12-31T14:13:40.999Z,6.05
2022-12-31T14:16:38.329Z,6.03
2022-12-31T14:19:13.900Z,6.04
2022-12-31T14:21:52.770Z,6.04
2022-12-31T14:24:44.142Z,6.00
2022-12-31T14:30:21.281Z,6.04
2022-12-31T14:33:26.113Z,6.05
2022-12-31T14:39:18.981Z,5.93
2022-12-31T14:42:16.202Z,5.87
2022-12-31T14:45:17.014Z,5.85
2022-12-31T14:48:22.280Z,5.82
2022-12-31T14:50:51.577Z,5.83
2022-12-31T14:53:24.399Z,5.84
2022-12-31T14:56:30.224Z,5.85
2022-12-31T14:59:00.800Z,5.84
2022-12-31T15:01:29.059Z,5.80
2022-12-31T15:03:57.741Z,5.75
2022-12-31T15:06:45.929Z,5.76
2022-12-31T15:09:50.594Z,5.71
2022-12-31T15:16:11.947Z,5.67
2022-12-31T15:18:48.245Z,5.62
2022-12-31T15:21:27.992Z,5.62
2022-12-31T15:24:00.902Z,5.63
2022-12-31T15:26:32.334Z,5.60
2022-12-31T15:29:39.450Z,5.58
2022-12-31T15:32:18.703Z,5.53
2022-12-31T15:34:46.814Z,5.55
2022-12-31T15:37:35.952Z,5.51
2022-12-31T15:40:19.593Z,5.52
2022-12-31T15:43:33.031Z,5.48
2022-12-31T15:46:02.049Z,5.51
2022-12-31T15:48:43.236Z,5.54
2022-12-31T15:51:33.304Z,5.55
2022-12-31T15:54:03.093Z,5.53
2022-12-31T15:56:41.237Z,5.45
2022-12-31T15:59:15.933Z,5.48
2022-12-31T16:01:44.894Z,5.44
2022-12-31T16:04:18.015Z,5.40
2022-12-31T16:06:50.617Z,5.34
2022-12-31T16:09:25.882Z,5.39
2022-12-31T16:11:55.288Z,5.37
2022-12-31T16:14:46.418Z,5.32
2022-12-31T16:17:30.053Z,5.31
2022-12-31T16:19:58.012Z,5.29
2022-12-31T16:22:26.569Z,5.30
2022-12-31T16:27:46.326Z,5.29
2022-12-31T16:30:23.040Z,5.33
2022-12-31T16:32:51.131Z,5.34
2022-12-31T16:35:28.091Z,5.28
2022-12-31T16:38:13.483Z,5.28
2022-12-31T16:40:43.425Z,5.30
2022-12-31T16:43:29.033Z,5.28
2022-12-31T16:46:11.958Z,5.27
2022-12-31T16:48:39.572Z,5.29
2022-12-31T16:51:07.316Z,5.23
2022-12-31T16:53:37.938Z,5.24
2022-12-31T16:56:09.900Z,5.21
2022-12-31T16:58:44.178Z,5.25
2022-12-31T17:01:26.184Z,5.24
2022-12-31T17:04:09.727Z,5.22
2022-12-31T17:07:30.246Z,5.19
2022-12-31T17:10:07.242Z,5.15
2022-12-31T17:13:24.968Z,5.15
2022-12-31T17:15:56.628Z,5.14
2022-12-31T17:18:30.899Z,5.13
2022-12-31T17:21:11.174Z,5.12
2022-12-31T17:23:40.931Z,5.17
2022-12-31T17:26:13.650Z,5.14
2022-12-31T17:28:57.182Z,5.09
2022-12-31T17:31:36.617Z,5.06
2022-12-31T17:34:14.003Z,5.11
2022-12-31T17:37:02.720Z,5.17
2022-12-31T17:40:24.557Z,5.22
2022-12-31T17:42:49.327Z,5.17
2022-12-31T17:45:22.010Z,5.17
2022-12-31T17:47:51.568Z,5.10
2022-12-31T17:50:19.822Z,5.04
2022-12-31T17:52:47.660Z,5.00
2022-12-31T17:55:16.238Z,4.97
2022-12-31T17:57:52.731Z,4.91
2022-12-31T18:00:25.006Z,4.90
2022-12-31T18:02:53.469Z,4.87
2022-12-31T18:05:22.953Z,4.79
2022-12-31T18:07:50.867Z,4.83
2022-12-31T18:10:22.682Z,4.75
2022-12-31T18:12:49.937Z,4.75
2022-12-31T18:15:23.075Z,4.69
2022-12-31T18:17:51.361Z,4.62
2022-12-31T18:20:18.699Z,4.61
2022-12-31T18:28:08.828Z,4.55
2022-12-31T18:31:00.868Z,4.54
2022-12-31T18:33:27.851Z,4.57
2022-12-31T18:36:08.882Z,4.50
2022-12-31T18:38:36.867Z,4.52
2022-12-31T18:41:04.438Z,4.53
2022-12-31T18:43:34.358Z,4.45
2022-12-31T18:46:01.160Z,4.46
2022-12-31T18:48:29.993Z,4.46
2022-12-31T18:50:56.793Z,4.39
2022-12-31T18:53:24.312Z,4.45
2022-12-31T18:55:57.163Z,4.42
2022-12-31T18:58:24.715Z,4.42
2022-12-31T19:00:52.951Z,4.38
2022-12-31T19:03:23.821Z,4.38
2022-12-31T19:05:52.275Z,4.32
2022-12-31T19:08:23.874Z,4.30
2022-12-31T19:10:52.206Z,4.31
2022-12-31T19:13:20.822Z,4.35
2022-12-31T19:15:50.990Z,4.29
2022-12-31T19:18:18.130Z,4.25
2022-12-31T19:20:45.851Z,4.26
2022-12-31T19:23:15.474Z,4.27
2022-12-31T19:25:47.963Z,4.21
2022-12-31T19:28:18.548Z,4.20
2022-12-31T19:30:45.769Z,4.16
2022-12-31T19:33:13.981Z,4.14
2022-12-31T19:35:41.749Z,4.02
2022-12-31T19:38:27.845Z,4.00
2022-12-31T19:40:55.630Z,3.99
2022-12-31T19:43:24.071Z,3.97
2022-12-31T19:45:51.946Z,4.00
2022-12-31T19:48:47.013Z,3.99
2022-12-31T19:51:19.801Z,3.95
2022-12-31T19:53:49.019Z,3.84
2022-12-31T19:56:19.611Z,3.88
2022-12-31T19:58:47.923Z,3.85
2022-12-31T20:01:23.025Z,3.79
2022-12-31T20:03:50.618Z,3.78
2022-12-31T20:06:22.898Z,3.72
2022-12-31T20:08:49.724Z,3.78
2022-12-31T20:11:21.932Z,3.78
2022-12-31T20:13:51.628Z,3.66
2022-12-31T20:16:20.950Z,3.66
2022-12-31T20:18:49.410Z,3.66
2022-12-31T20:21:41.898Z,3.69
2022-12-31T20:24:12.375Z,3.67
2022-12-31T20:26:40.434Z,3.67
2022-12-31T20:29:07.255Z,3.67
2022-12-31T20:31:59.231Z,3.58
2022-12-31T20:34:26.147Z,3.57
2022-12-31T20:36:53.488Z,3.56
2022-12-31T20:39:20.903Z,3.59
2022-12-31T20:41:49.936Z,3.56
2022-12-31T20:44:21.896Z,3.49
2022-12-31T20:46:49.511Z,3.53
2022-12-31T20:49:26.968Z,3.41
2022-12-31T20:52:04.547Z,3.40
2022-12-31T20:54:34.147Z,3.27
2022-12-31T20:57:01.087Z,3.29
2022-12-31T20:59:27.983Z,3.29
2022-12-31T21:04:46.407Z,3.30
2022-12-31T21:07:15.382Z,3.32
2022-12-31T21:09:42.144Z,3.24
2022-12-31T21:12:11.621Z,3.20
2022-12-31T21:14:44.814Z,3.24
2022-12-31T21:17:12.244Z,3.28
2022-12-31T21:19:39.551Z,3.32
2022-12-31T21:22:06.445Z,3.32
2022-12-31T21:24:34.227Z,3.32
2022-12-31T21:27:02.483Z,3.24
2022-12-31T21:29:34.370Z,3.23
2022-12-31T21:32:01.777Z,3.26
2022-12-31T21:34:28.580Z,3.21
2022-12-31T21:36:55.810Z,3.20
2022-12-31T21:39:23.142Z,3.11
2022-12-31T21:41:49.997Z,3.15
2022-12-31T21:44:18.940Z,3.11
2022-12-31T21:47:24.777Z,3.18
2022-12-31T21:49:37.559Z,3.10
2022-12-31T21:52:05.689Z,3.02
2022-12-31T21:54:32.943Z,2.98
2022-12-31T21:57:00.399Z,2.99
2022-12-31T21:59:31.311Z,2.98
2022-12-31T22:02:00.305Z,3.00
2022-12-31T22:05:00.773Z,2.99
2022-12-31T22:07:16.130Z,2.99
2022-12-31T22:09:42.944Z,2.99
2022-12-31T22:12:09.813Z,2.86
2022-12-31T22:14:38.952Z,2.90
2022-12-31T22:17:07.392Z,2.87
2022-12-31T22:19:54.690Z,2.95
2022-12-31T22:22:24.981Z,2.86
2022-12-31T22:24:52.017Z,2.76
2022-12-31T22:28:04.416Z,2.67
2022-12-31T22:30:34.738Z,2.69
2022-12-31T22:33:02.005Z,2.76
2022-12-31T22:35:29.026Z,2.78
2022-12-31T22:37:59.021Z,2.83
2022-12-31T22:40:27.311Z,2.79
2022-12-31T22:42:55.312Z,2.77
2022-12-31T22:45:22.464Z,2.82
2022-12-31T22:47:49.464Z,2.74
2022-12-31T22:50:16.503Z,2.67
2022-12-31T22:52:44.028Z,2.75
2022-12-31T22:55:10.812Z,2.68
2022-12-31T22:57:41.985Z,2.63
2022-12-31T23:00:13.183Z,2.63
2022-12-31T23:02:42.113Z,2.57
2022-12-31T23:05:15.368Z,2.60
2022-12-31T23:08:18.643Z,2.52
2022-12-31T23:10:52.453Z,2.55
2022-12-31T23:13:21.319Z,2.49
2022-12-31T23:15:48.158Z,2.54
2022-12-31T23:18:15.294Z,2.52
2022-12-31T23:20:42.127Z,2.49
2022-12-31T23:23:17.320Z,2.53
2022-12-31T23:25:50.093Z,2.42
2022-12-31T23:31:19.110Z,2.38
2022-12-31T23:33:45.897Z,2.38
2022-12-31T23:36:13.963Z,2.35
2022-12-31T23:38:40.848Z,2.34
2022-12-31T23:44:06.958Z,2.27
2022-12-31T23:46:33.756Z,2.29
2022-12-31T23:49:02.918Z,2.31
2022-12-31T23:51:29.961Z,2.27
2022-12-31T23:53:56.828Z,2.31
2022-12-31T23:56:24.213Z,2.21
2022-12-31T23:58:58.042Z,2.24
